עמוד ראשי
METAR-TAF:

METAR-TAF

שדות תעופה :

La Romana, הרפובליקה הדומיניקאנית

קו רוחב: 18-25N, קו אורך: 068-57W, גובה: 8מטר

תצפית מזג אוויר נוכחית

הדו"ח נערך לפני 35דקות, בשעה 01:00 UTC
רוח רגועה
טמפרטורת 28 צלסיוס
לחות 84%
לחץ 1016 hPa
ראות 10 קילומטר או יותר
מעט עננים בגובה 1800רגל

METAR: MDLR 130100Z 00000KT 9999 FEW018 28/25 Q1016

זמן: 21:35 (01:35 UTC)

תחזית

הדו"ח נערך לפני 3 שעות ו 35דקות, בשעה 22:00 UTC
תחזית בתוקף מ 13 ב 00 UTC עד 14 ב 00 UTC
רוח 12קשר מכיוון מזרח
ראות 10 קילומטר או יותר
עננים פזורים בגובה 2000רגל
הסתברות 30%
13 ב 00 UTC עד 13 ב 06 UTC
ראות: 7000מטר
עננים בינוניים בגובה 1800רגל
גשם קל
יעשה מ
13 ב 01 UTC עד 13 ב 03 UTC
רוח קשר מכיוון צפון

TAF: MDLR 122200Z 1300/1400 09012KT 9999 SCT020 PROB30 1300/1306 7000 -RA BKN018 BECMG 1301/1303 00000KT

תצפיות ותחזיות מזג אוויר לגבי יותר מ- 4,000 שדות תעופה ברחבי העולם. דוחות METAR ו- TAF.

התחנות הזמינות מסומנות בנקודות צהובות ואדומות על גבי המפה.

העבר את העכבר לנקודה הצבעונית על מנת לראות את שם התחנה.

לאחר מכן, לחץ כדי לראות את תוכן ואת תחזיות מזג האוויר.

כדי לשנות את המפה: לחץ על הכפתורים הירוקים עם הפלוס השחור כדי להתקרב; על הכפתור הירוק עם המקף כדי להתרחק; או בחיצים הירוקים למפות סמוכות.


METAR-TAF: